Terminal Aerodrome Forecast
Issued by NWS Wakefield, VA

Home | Current Version | Previous Version | Text Only | Print | Product List | Glossary On
Versions: 1 2 3 4 5 6 7 8 9 10 11 12 13 14 15 16
000
FTUS41 KAKQ 271100
TAFECG
TAF
KECG 271131Z 2712/2812 36007KT P6SM SCT004 OVC012
      TEMPO 2712/2714 BKN004
     FM271400 03010KT P6SM SCT035
     FM280300 27004KT P6SM SKC=

USA.gov is the U.S. government's official web portal to all federal, state and local government web resources and services.